Time;durP1;ratioP1;P1;durP2;ratioP2;P2;SDS_P1;SDS_P2;PMS_P1;PMS_P2;Temp;Humidity;BMP_temperature;BMP_pressure;BME280_temperature;BME280_humidity;BME280_pressure;Samples;Min_cycle;Max_cycle;Signal;HPM_P1;HPM_P2
2021/06/26 00:00:53;;;;;;;;;3.33;3.00;;;;;21.02;61.21;101203.50;5060345;28;45300;-52
2021/06/26 00:03:24;;;;;;;;;3.00;3.00;;;;;20.97;61.36;101201.06;5067803;28;45715;-53
2021/06/26 00:05:50;;;;;;;;;4.00;4.00;;;;;20.93;61.53;101206.69;5081494;28;48401;-53
2021/06/26 00:08:16;;;;;;;;;2.67;2.67;;;;;20.92;61.71;101200.44;5081508;27;45485;-52
2021/06/26 00:10:43;;;;;;;;;4.00;4.00;;;;;20.89;61.53;101206.00;5075460;27;46133;-54
2021/06/26 00:13:09;;;;;;;;;4.67;4.67;;;;;20.87;61.71;101210.63;5079922;27;45371;-53
2021/06/26 00:15:35;;;;;;;;;4.67;4.67;;;;;20.85;61.67;101207.16;5077887;28;47359;-53
2021/06/26 00:18:00;;;;;;;;;4.00;3.67;;;;;20.83;62.02;101209.94;5072082;27;45965;-50
2021/06/26 00:20:26;;;;;;;;;4.33;4.33;;;;;20.81;62.06;101209.13;5069562;28;45411;-53
2021/06/26 00:22:52;;;;;;;;;5.00;4.00;;;;;20.77;61.76;101207.56;5067132;27;45458;-53
2021/06/26 00:25:18;;;;;;;;;4.00;4.00;;;;;20.75;62.06;101209.50;5081126;27;48497;-54
2021/06/26 00:27:43;;;;;;;;;5.00;5.00;;;;;20.75;62.72;101209.50;5081090;28;45922;-54
2021/06/26 00:30:10;;;;;;;;;6.00;6.00;;;;;20.75;62.33;101209.50;5070982;27;45477;-53
2021/06/26 00:32:35;;;;;;;;;9.00;5.67;;;;;20.71;62.47;101202.53;5059662;28;45293;-54
2021/06/26 00:35:01;;;;;;;;;5.50;5.50;;;;;20.69;63.08;101203.56;5059824;28;45396;-50
2021/06/26 00:37:26;;;;;;;;;6.00;6.00;;;;;20.70;62.85;101206.16;5077453;28;45405;-53
2021/06/26 00:39:52;;;;;;;;;5.00;5.00;;;;;20.71;62.62;101201.63;5081502;27;45395;-50
2021/06/26 00:42:17;;;;;;;;;5.00;5.00;;;;;20.70;62.29;101205.31;5070254;27;45466;-51
2021/06/26 00:44:43;;;;;;;;;5.67;5.67;;;;;20.70;63.00;101213.38;5070276;28;47347;-52
2021/06/26 00:47:12;;;;;;;;;7.67;6.67;;;;;20.70;62.78;101206.16;5087742;27;45931;-53
2021/06/26 00:49:39;;;;;;;;;7.00;7.00;;;;;20.71;63.21;101207.94;5064718;28;45270;-50
2021/06/26 00:52:04;;;;;;;;;6.00;6.00;;;;;20.72;63.25;101206.97;5069826;28;45571;-53
2021/06/26 00:54:30;;;;;;;;;10.00;8.00;;;;;20.72;63.18;101206.97;5064885;28;47205;-53
2021/06/26 00:56:57;;;;;;;;;5.25;5.25;;;;;20.72;63.33;101200.72;5080841;27;45495;-54
2021/06/26 00:59:23;;;;;;;;;5.00;5.00;;;;;20.73;63.30;101194.38;5080937;27;45631;-53
2021/06/26 01:01:48;;;;;;;;;5.00;5.00;;;;;20.76;63.13;101186.09;5080590;27;45654;-54
2021/06/26 01:04:14;;;;;;;;;6.00;6.00;;;;;20.81;62.89;101184.00;5080318;27;47100;-52
2021/06/26 01:06:40;;;;;;;;;5.00;5.00;;;;;20.84;62.99;101168.53;5080312;27;45696;-53
2021/06/26 01:09:06;;;;;;;;;7.25;7.25;;;;;20.88;62.52;101173.72;5079034;27;45398;-53
2021/06/26 01:11:31;;;;;;;;;8.00;8.00;;;;;20.87;62.40;101180.97;5078116;27;45697;-54
2021/06/26 01:13:58;;;;;;;;;6.00;6.00;;;;;20.85;62.73;101172.09;5075988;28;47089;-53
2021/06/26 01:16:25;;;;;;;;;6.33;6.33;;;;;20.81;62.69;101171.38;5079397;27;45881;-50
2021/06/26 01:18:50;;;;;;;;;7.00;7.00;;;;;20.80;62.61;101168.75;5080608;27;45330;-54
2021/06/26 01:21:16;;;;;;;;;5.00;5.00;;;;;20.81;63.19;101163.28;5075736;28;45362;-54
2021/06/26 01:23:46;;;;;;;;;7.67;7.67;;;;;20.83;62.68;101161.38;5066160;27;47939;-54
2021/06/26 01:26:13;;;;;;;;;6.00;5.33;;;;;20.84;62.56;101160.44;5079272;28;45371;-53
2021/06/26 01:28:39;;;;;;;;;7.33;7.33;;;;;20.83;62.61;101166.78;5095808;27;45278;-52
2021/06/26 01:31:06;;;;;;;;;6.00;6.00;;;;;20.81;63.04;101168.66;5080324;27;45332;-53
2021/06/26 01:33:31;;;;;;;;;9.00;8.00;;;;;20.79;63.03;101167.91;5080172;27;47284;-53
2021/06/26 01:35:57;;;;;;;;;10.25;7.25;;;;;20.78;63.15;101168.84;5080115;27;45337;-51
2021/06/26 01:38:22;;;;;;;;;6.00;6.00;;;;;20.74;63.14;101164.59;5079871;27;45325;-53
2021/06/26 01:40:48;;;;;;;;;6.00;6.00;;;;;20.68;63.32;101164.94;5059600;28;45415;-53
2021/06/26 01:43:13;;;;;;;;;4.33;4.00;;;;;20.68;63.18;101161.38;5079748;27;47270;-53
2021/06/26 01:45:40;;;;;;;;;6.00;6.00;;;;;20.70;62.96;101157.63;5076591;27;45446;-54
2021/06/26 01:48:06;;;;;;;;;6.00;5.67;;;;;20.70;63.38;101156.75;5058809;28;45642;-52
2021/06/26 01:50:31;;;;;;;;;7.33;4.67;;;;;20.69;63.00;101157.72;5062598;28;45512;-53
2021/06/26 01:52:57;;;;;;;;;9.00;8.00;;;;;20.71;63.13;101153.09;5068402;27;48248;-53
2021/06/26 01:55:23;;;;;;;;;6.00;6.00;;;;;20.72;63.55;101161.13;5078766;28;45651;-53
2021/06/26 01:57:51;;;;;;;;;9.50;7.50;;;;;20.74;63.43;101156.50;5078481;27;45358;-53
2021/06/26 02:00:18;;;;;;;;;6.50;6.50;;;;;20.73;63.50;101156.59;5080186;27;45609;-53
2021/06/26 02:02:44;;;;;;;;;6.00;6.00;;;;;20.72;63.34;101154.88;5078173;27;47340;-52
2021/06/26 02:05:11;;;;;;;;;10.50;9.25;;;;;20.69;63.01;101145.09;5079702;27;45325;-54
2021/06/26 02:07:37;;;;;;;;;6.00;6.00;;;;;20.67;63.68;101140.75;5079639;27;45313;-52
2021/06/26 02:10:05;;;;;;;;;8.00;7.00;;;;;20.66;63.05;101152.50;5080026;27;45337;-53
2021/06/26 02:12:31;;;;;;;;;8.50;8.50;;;;;20.64;63.60;101141.81;5070807;27;47455;-52
2021/06/26 02:14:56;;;;;;;;;10.75;9.50;;;;;20.61;63.47;101149.19;5079523;28;45898;-54
2021/06/26 02:17:22;;;;;;;;;7.00;6.25;;;;;20.58;63.37;101150.22;5078202;27;45630;-52
2021/06/26 02:19:49;;;;;;;;;7.75;7.75;;;;;20.53;63.42;101142.41;5065882;28;45363;-54
2021/06/26 02:22:16;;;;;;;;;9.50;9.50;;;;;20.52;63.69;101151.44;5062425;28;47525;-53
2021/06/26 02:24:42;;;;;;;;;6.75;6.75;;;;;20.50;63.90;101153.38;5074699;27;45676;-53
2021/06/26 02:27:08;;;;;;;;;8.00;8.00;;;;;20.47;64.01;101155.38;5066380;28;45338;-53
2021/06/26 02:29:33;;;;;;;;;6.00;6.00;;;;;20.46;63.81;101156.34;5070982;27;45301;-54
2021/06/26 02:31:59;;;;;;;;;7.00;7.00;;;;;20.46;63.57;101156.34;5059041;28;45741;-53
2021/06/26 02:34:25;;;;;;;;;6.33;6.33;;;;;20.47;63.54;101158.06;5059215;28;45362;-53
2021/06/26 02:36:51;;;;;;;;;6.00;6.00;;;;;20.46;63.86;101159.91;5065406;28;45485;-53
2021/06/26 02:39:17;;;;;;;;;6.33;6.33;;;;;20.43;64.22;101143.88;5079565;27;45807;-52
2021/06/26 02:41:42;;;;;;;;;7.00;7.00;;;;;20.45;64.33;101146.47;5069709;27;46747;-52
2021/06/26 02:44:08;;;;;;;;;10.33;8.00;;;;;20.45;63.87;101151.88;5058689;28;45338;-52
2021/06/26 02:46:33;;;;;;;;;11.00;8.00;;;;;20.43;63.58;101153.78;5066235;27;45333;-51
2021/06/26 02:48:59;;;;;;;;;7.00;7.00;;;;;20.42;64.13;101155.59;5061114;28;45615;-52
2021/06/26 02:51:25;;;;;;;;;7.33;7.33;;;;;20.42;64.31;101152.03;5059846;28;47276;-52
2021/06/26 02:53:51;;;;;;;;;6.75;6.75;;;;;20.39;64.17;101149.50;5071456;27;45266;-49
2021/06/26 02:56:16;;;;;;;;;7.33;7.33;;;;;20.38;64.42;101147.75;5064743;27;45342;-53
2021/06/26 02:58:42;;;;;;;;;6.33;6.00;;;;;20.38;64.00;101140.53;5066624;28;45305;-51
2021/06/26 03:01:08;;;;;;;;;6.00;6.00;;;;;20.38;63.85;101145.06;5066043;27;48157;-53
2021/06/26 03:03:33;;;;;;;;;7.00;7.00;;;;;20.37;64.23;101146.03;5058738;28;45414;-53
2021/06/26 03:05:59;;;;;;;;;5.00;5.00;;;;;20.35;64.22;101145.25;5058705;28;45675;-52
2021/06/26 03:08:24;;;;;;;;;6.00;6.00;;;;;20.33;63.99;101148.03;5058471;28;45414;-54
2021/06/26 03:10:50;;;;;;;;;8.33;7.00;;;;;20.32;64.54;101148.09;5058979;28;47082;-52
2021/06/26 03:13:16;;;;;;;;;7.00;7.00;;;;;20.30;64.10;101140.09;5063147;28;45477;-53
2021/06/26 03:15:43;;;;;;;;;8.00;6.67;;;;;20.28;64.67;101142.00;5077619;28;45400;-53
2021/06/26 03:18:08;;;;;;;;;7.67;7.33;;;;;20.28;64.65;101137.47;5090573;27;45470;-52
2021/06/26 03:20:34;;;;;;;;;9.33;9.33;;;;;20.28;64.25;101145.56;5058300;28;47291;-51
2021/06/26 03:22:59;;;;;;;;;8.00;7.67;;;;;20.28;64.25;101140.19;5065181;28;46002;-51
2021/06/26 03:25:25;;;;;;;;;9.33;8.00;;;;;20.27;64.40;101145.66;5073478;27;45665;-51
2021/06/26 03:27:50;;;;;;;;;8.33;8.33;;;;;20.23;64.83;101138.69;5077949;28;45466;-53
2021/06/26 03:30:16;;;;;;;;;8.00;8.00;;;;;20.21;64.53;101144.19;5074103;28;48255;-51
2021/06/26 03:32:42;;;;;;;;;9.67;7.67;;;;;20.20;64.89;101144.22;5080413;27;46379;-52
2021/06/26 03:35:08;;;;;;;;;7.00;7.00;;;;;20.19;64.72;101143.38;5082308;27;45222;-54
2021/06/26 03:37:33;;;;;;;;;7.00;6.00;;;;;20.20;64.73;101150.53;5081891;28;45507;-52
2021/06/26 03:39:59;;;;;;;;;8.00;6.00;;;;;20.19;65.22;101143.38;5082273;27;47598;-53
2021/06/26 03:42:25;;;;;;;;;5.00;5.00;;;;;20.19;65.17;101151.44;5069037;27;45785;-54
2021/06/26 03:44:50;;;;;;;;;8.00;8.00;;;;;20.21;64.82;101137.91;5080007;27;45352;-54
2021/06/26 03:47:16;;;;;;;;;10.33;8.33;;;;;20.20;64.78;101145.13;5078090;27;45568;-54
2021/06/26 03:49:42;;;;;;;;;8.00;7.00;;;;;20.20;65.11;101136.16;5081042;27;47274;-54
2021/06/26 03:52:07;;;;;;;;;6.33;6.33;;;;;20.20;65.10;101141.53;5081554;27;46067;-52
2021/06/26 03:54:34;;;;;;;;;9.67;9.67;;;;;20.20;64.57;101142.44;5085204;27;45435;-54
2021/06/26 03:56:59;;;;;;;;;8.67;8.00;;;;;20.15;64.87;101146.31;5071850;28;46085;-53
2021/06/26 03:59:25;;;;;;;;;7.00;7.00;;;;;20.13;65.33;101143.72;5064111;27;47371;-52
2021/06/26 04:01:51;;;;;;;;;10.00;8.67;;;;;20.14;65.17;101149.97;5073549;27;45597;-52
2021/06/26 04:04:16;;;;;;;;;10.00;9.33;;;;;20.12;65.35;101139.28;5084883;27;45431;-54
2021/06/26 04:06:42;;;;;;;;;8.00;8.00;;;;;20.10;65.30;101143.03;5080458;28;45782;-54
2021/06/26 04:09:07;;;;;;;;;7.00;7.00;;;;;20.12;65.33;101141.09;5081431;27;47429;-53
2021/06/26 04:11:33;;;;;;;;;8.33;8.00;;;;;20.12;65.12;101147.38;5075017;27;45420;-53
2021/06/26 04:13:59;;;;;;;;;8.67;8.67;;;;;20.11;65.64;101140.25;5083599;27;45528;-52
2021/06/26 04:16:24;;;;;;;;;9.67;8.00;;;;;20.11;65.19;101145.63;5082175;27;45670;-54
2021/06/26 04:18:50;;;;;;;;;6.00;6.00;;;;;20.11;65.45;101144.75;5084929;27;47373;-53
2021/06/26 04:21:15;;;;;;;;;11.00;7.00;;;;;20.12;65.68;101149.19;5096550;27;45430;-54
2021/06/26 04:23:41;;;;;;;;;7.33;7.33;;;;;20.12;65.72;101155.44;5077240;28;45574;-53
2021/06/26 04:26:06;;;;;;;;;7.67;7.67;;;;;20.12;65.59;101159.97;5072825;28;45661;-51
2021/06/26 04:28:32;;;;;;;;;12.33;8.33;;;;;20.14;65.58;101152.66;5072883;28;47421;-54
2021/06/26 04:30:58;;;;;;;;;6.67;6.00;;;;;20.16;65.26;101156.16;5081136;27;45586;-53
2021/06/26 04:33:27;;;;;;;;;7.00;7.00;;;;;20.18;65.05;101157.78;5080126;28;45480;-51
2021/06/26 04:35:52;;;;;;;;;8.00;6.67;;;;;20.19;65.12;101154.16;5081439;28;45560;-51
2021/06/26 04:38:22;;;;;;;;;5.67;5.67;;;;;20.21;65.12;101160.34;5096598;27;47223;-51
2021/06/26 04:40:49;;;;;;;;;8.00;7.00;;;;;20.20;64.95;101157.72;5078376;27;45856;-54
2021/06/26 04:43:14;;;;;;;;;9.67;8.00;;;;;20.17;65.24;101158.75;5076188;27;45453;-53
2021/06/26 04:45:44;;;;;;;;;8.00;7.00;;;;;20.14;65.19;101153.53;5081002;27;45734;-52
2021/06/26 04:48:10;;;;;;;;;6.00;6.00;;;;;20.14;65.24;101152.66;5082749;27;47544;-51
2021/06/26 04:50:36;;;;;;;;;7.67;5.67;;;;;20.14;65.03;101149.97;5080529;27;46055;-50
2021/06/26 04:53:01;;;;;;;;;6.67;6.67;;;;;20.14;65.15;101150.84;5078214;27;45666;-54
2021/06/26 04:55:27;;;;;;;;;7.33;7.00;;;;;20.12;65.48;101159.97;5081272;27;45342;-54
2021/06/26 04:57:52;;;;;;;;;8.33;7.67;;;;;20.11;65.56;101150.16;5080659;28;47059;-53
2021/06/26 05:00:18;;;;;;;;;6.00;6.00;;;;;20.10;65.86;101157.38;5076978;28;45678;-50
2021/06/26 05:02:44;;;;;;;;;7.67;7.67;;;;;20.11;65.64;101155.53;5077338;27;45563;-53
2021/06/26 05:05:10;;;;;;;;;6.33;6.33;;;;;20.12;66.07;101157.28;5080568;27;45621;-50
2021/06/26 05:07:35;;;;;;;;;8.00;8.00;;;;;20.11;65.36;101152.84;5081125;27;47835;-53
2021/06/26 05:10:01;;;;;;;;;8.00;5.33;;;;;20.14;65.39;101150.84;5077287;27;45355;-50
2021/06/26 05:12:26;;;;;;;;;5.00;5.00;;;;;20.13;65.63;101159.88;5068966;27;45712;-52
2021/06/26 05:14:52;;;;;;;;;7.33;6.33;;;;;20.14;65.51;101149.97;5073830;28;45369;-50
2021/06/26 05:17:17;;;;;;;;;7.33;7.33;;;;;20.16;65.77;101153.44;5077659;27;48723;-53
2021/06/26 05:19:43;;;;;;;;;9.00;9.00;;;;;20.18;65.69;101149.72;5074357;27;45780;-52
2021/06/26 05:22:08;;;;;;;;;7.67;6.33;;;;;20.22;65.45;101153.13;5080314;27;45294;-53
2021/06/26 05:24:34;;;;;;;;;7.67;7.67;;;;;20.21;65.16;101149.56;5078901;28;45580;-52
2021/06/26 05:26:59;;;;;;;;;10.00;10.00;;;;;20.22;65.53;101151.31;5078895;27;47001;-50
2021/06/26 05:29:25;;;;;;;;;10.33;7.67;;;;;20.25;65.58;101158.34;5078981;27;45781;-51
2021/06/26 05:31:50;;;;;;;;;7.00;6.00;;;;;20.27;65.45;101159.13;5077751;27;45393;-50
2021/06/26 05:34:16;;;;;;;;;8.00;8.00;;;;;20.30;65.66;101164.34;5078203;28;45568;-52
2021/06/26 05:36:41;;;;;;;;;9.00;7.67;;;;;20.33;65.40;101169.59;5059828;28;48083;-52
2021/06/26 05:39:07;;;;;;;;;10.00;8.33;;;;;20.33;64.83;101163.28;5079869;27;45319;-54
2021/06/26 05:41:32;;;;;;;;;10.67;8.67;;;;;20.35;65.15;101164.09;5078861;28;45545;-53
2021/06/26 05:43:57;;;;;;;;;10.00;8.00;;;;;20.37;65.26;101159.50;5080011;27;45361;-53
2021/06/26 05:46:23;;;;;;;;;6.67;6.67;;;;;20.38;65.23;101163.94;5081470;27;47166;-52
2021/06/26 05:48:49;;;;;;;;;9.33;8.67;;;;;20.38;65.02;101166.63;5075157;28;45620;-50
2021/06/26 05:51:17;;;;;;;;;7.00;7.00;;;;;20.38;65.03;101163.94;5080057;27;45624;-53
2021/06/26 05:53:43;;;;;;;;;6.00;6.00;;;;;20.38;64.83;101170.19;5068276;27;45378;-52
2021/06/26 05:56:09;;;;;;;;;6.33;6.33;;;;;20.39;64.85;101176.44;5074335;27;47258;-53
2021/06/26 05:58:37;;;;;;;;;8.00;8.00;;;;;20.40;64.63;101170.97;5078854;28;45805;-52
2021/06/26 06:01:06;;;;;;;;;7.00;6.33;;;;;20.42;65.00;101177.19;5074753;27;45660;-50
2021/06/26 06:03:32;;;;;;;;;7.33;6.00;;;;;20.43;64.72;101175.34;5071661;27;45672;-53
2021/06/26 06:05:58;;;;;;;;;6.67;6.00;;;;;20.45;64.59;101176.13;5072408;28;48302;-51
2021/06/26 06:08:23;;;;;;;;;9.00;9.00;;;;;20.46;64.96;101178.78;5079013;27;45369;-52
2021/06/26 06:10:49;;;;;;;;;6.00;6.00;;;;;20.50;64.44;101177.63;5065108;28;45307;-51
2021/06/26 06:13:17;;;;;;;;;8.00;7.67;;;;;20.53;64.46;101172.06;5074003;27;45638;-52
2021/06/26 06:15:44;;;;;;;;;8.33;6.33;;;;;20.57;64.17;101173.63;5068255;27;47417;-53
2021/06/26 06:18:10;;;;;;;;;10.00;8.75;;;;;20.61;64.17;101173.47;5079062;27;45290;-52
2021/06/26 06:20:36;;;;;;;;;9.25;7.25;;;;;20.62;64.38;101180.59;5078277;27;45598;-52
2021/06/26 06:23:02;;;;;;;;;8.50;7.75;;;;;20.62;64.10;101181.47;5070886;28;45764;-51
2021/06/26 06:25:28;;;;;;;;;6.25;6.25;;;;;20.60;64.34;101180.69;5079642;27;48234;-54
2021/06/26 06:27:53;;;;;;;;;6.00;6.00;;;;;20.62;64.46;101178.78;5079976;28;45764;-52
2021/06/26 06:30:19;;;;;;;;;5.00;5.00;;;;;20.64;63.88;101181.38;5079342;27;45306;-53
2021/06/26 06:32:45;;;;;;;;;5.33;5.33;;;;;20.65;63.74;101185.81;5067294;28;45543;-53
2021/06/26 06:35:10;;;;;;;;;8.00;7.00;;;;;20.67;63.95;101192.88;5057688;28;46531;-52
2021/06/26 06:37:37;;;;;;;;;7.67;6.67;;;;;20.68;64.21;101186.50;5072336;28;45367;-53
2021/06/26 06:40:04;;;;;;;;;5.00;5.00;;;;;20.69;63.97;101190.94;5068050;27;45598;-50
2021/06/26 06:42:29;;;;;;;;;6.67;6.67;;;;;20.70;63.88;101191.81;5076828;27;45882;-51
2021/06/26 06:44:55;;;;;;;;;8.33;8.33;;;;;20.72;63.98;101177.31;5063634;28;46178;-55
2021/06/26 06:47:20;;;;;;;;;6.33;6.33;;;;;20.77;63.94;101179.72;5070547;27;45384;-53
2021/06/26 06:49:46;;;;;;;;;7.00;5.67;;;;;20.79;63.94;101175.97;5076381;28;45489;-53
2021/06/26 06:52:12;;;;;;;;;6.00;6.00;;;;;20.84;64.01;101170.34;5079585;27;45532;-53
2021/06/26 06:54:37;;;;;;;;;7.00;7.00;;;;;20.87;63.50;101162.06;5066254;28;45647;-53
2021/06/26 06:57:03;;;;;;;;;5.67;5.00;;;;;20.89;63.57;101165.53;5077733;28;45357;-53
2021/06/26 06:59:29;;;;;;;;;7.33;6.33;;;;;20.91;63.60;101176.25;5074815;27;45358;-53
2021/06/26 07:01:54;;;;;;;;;7.00;6.00;;;;;20.92;63.47;101184.25;5079006;27;45302;-53
2021/06/26 07:04:20;;;;;;;;;7.33;5.67;;;;;20.94;63.27;101181.47;5075342;27;48233;-55
2021/06/26 07:06:45;;;;;;;;;4.67;4.67;;;;;20.95;63.55;101181.38;5076849;27;45440;-51
2021/06/26 07:09:11;;;;;;;;;6.33;6.33;;;;;20.96;63.27;101185.84;5065681;28;45437;-52
2021/06/26 07:11:36;;;;;;;;;7.25;7.25;;;;;20.96;62.94;101187.63;5077389;28;45496;-52
2021/06/26 07:14:02;;;;;;;;;8.00;8.00;;;;;20.95;63.10;101189.47;5070721;27;47386;-51
2021/06/26 07:16:27;;;;;;;;;8.00;7.00;;;;;20.99;63.52;101191.03;5077192;27;45454;-52
2021/06/26 07:18:53;;;;;;;;;7.67;5.33;;;;;21.04;63.06;101194.34;5074423;28;45425;-53
2021/06/26 07:21:18;;;;;;;;;6.25;6.25;;;;;21.12;63.09;101193.91;5078148;28;45411;-53
2021/06/26 07:23:44;;;;;;;;;6.75;6.25;;;;;21.18;63.30;101193.53;5077028;27;48633;-54
2021/06/26 07:26:09;;;;;;;;;6.00;5.00;;;;;21.22;62.64;101191.56;5078276;27;45404;-52
2021/06/26 07:28:35;;;;;;;;;6.67;6.67;;;;;21.24;63.26;101195.03;5078451;27;45339;-55
2021/06/26 07:31:00;;;;;;;;;7.00;7.00;;;;;21.25;62.67;101196.75;5074481;27;45309;-53
2021/06/26 07:33:26;;;;;;;;;8.00;8.00;;;;;21.24;62.31;101200.44;5069425;28;45591;-55
2021/06/26 07:35:51;;;;;;;;;5.67;5.67;;;;;21.23;62.29;101196.00;5069478;28;46119;-52
2021/06/26 07:38:17;;;;;;;;;9.00;8.00;;;;;21.24;62.37;101193.19;5068549;27;45760;-52
2021/06/26 07:40:42;;;;;;;;;7.00;7.00;;;;;21.25;62.60;101194.97;5066560;28;45799;-52
2021/06/26 07:43:08;;;;;;;;;9.00;8.00;;;;;21.27;62.63;101192.16;5086601;27;47261;-53
2021/06/26 07:45:33;;;;;;;;;9.00;9.00;;;;;21.27;62.28;101198.44;5063581;28;45443;-51
2021/06/26 07:47:59;;;;;;;;;8.00;8.00;;;;;21.31;62.45;101193.72;5061497;27;45602;-53
2021/06/26 07:50:24;;;;;;;;;8.67;8.67;;;;;21.33;62.21;101194.50;5076596;28;45623;-52
2021/06/26 07:52:50;;;;;;;;;8.33;8.00;;;;;21.36;62.65;101203.31;5091935;27;48207;-53
2021/06/26 07:55:16;;;;;;;;;7.67;7.67;;;;;21.37;62.70;101196.06;5075419;28;45369;-54
2021/06/26 07:57:41;;;;;;;;;7.67;7.67;;;;;21.38;62.76;101200.50;5077756;27;45457;-50
2021/06/26 08:00:08;;;;;;;;;9.50;8.75;;;;;21.41;62.50;101197.63;5094571;27;45399;-51
2021/06/26 08:02:35;;;;;;;;;8.00;7.25;;;;;21.42;62.18;101191.25;5068441;27;47195;-53
2021/06/26 08:05:00;;;;;;;;;9.33;8.33;;;;;21.43;62.14;101196.56;5086108;27;45806;-52
2021/06/26 08:07:26;;;;;;;;;6.67;6.67;;;;;21.44;62.03;101192.91;5072371;27;45299;-52
2021/06/26 08:09:51;;;;;;;;;8.67;8.67;;;;;21.47;62.01;101190.97;5068982;28;45605;-52
2021/06/26 08:12:17;;;;;;;;;7.67;7.67;;;;;21.49;62.06;101194.47;5072897;27;47250;-53
2021/06/26 08:14:44;;;;;;;;;11.67;11.00;;;;;21.50;61.89;101185.41;5070787;28;45637;-54
2021/06/26 08:17:11;;;;;;;;;7.67;7.67;;;;;21.53;62.29;101180.69;5078478;27;45744;-54
2021/06/26 08:19:37;;;;;;;;;7.67;7.67;;;;;21.56;62.43;101179.63;5081247;27;45669;-53
2021/06/26 08:22:05;;;;;;;;;7.50;7.50;;;;;21.58;61.73;101183.97;5069547;27;47479;-53
2021/06/26 08:24:34;;;;;;;;;6.00;6.00;;;;;21.58;62.14;101177.69;5042999;28;45692;-53
2021/06/26 08:27:01;;;;;;;;;8.67;7.00;;;;;21.61;62.15;101178.41;5059749;28;45334;-54
2021/06/26 08:29:27;;;;;;;;;6.00;6.00;;;;;21.64;62.08;101177.34;5063942;28;45922;-52
2021/06/26 08:31:53;;;;;;;;;9.67;8.67;;;;;21.70;62.25;101176.97;5073351;28;47469;-54
2021/06/26 08:34:19;;;;;;;;;8.67;8.00;;;;;21.78;62.11;101169.28;5061661;27;45755;-54
2021/06/26 08:36:44;;;;;;;;;9.67;7.67;;;;;21.84;61.27;101171.59;5059913;28;45681;-53
2021/06/26 08:39:10;;;;;;;;;9.00;9.00;;;;;21.87;61.39;101184.06;5069718;28;45537;-51
2021/06/26 08:41:45;;;;;;;;;8.00;8.00;;;;;21.88;60.90;101178.56;5060026;28;48018;-50
2021/06/26 08:44:12;;;;;;;;;10.67;9.00;;;;;21.89;60.72;101176.72;5076000;28;45371;-54
2021/06/26 08:46:44;;;;;;;;;7.00;7.00;;;;;21.92;61.33;101176.53;5080633;27;45508;-59
2021/06/26 08:49:10;;;;;;;;;7.00;7.00;;;;;21.96;60.89;101183.47;5080243;27;45700;-55
2021/06/26 08:51:36;;;;;;;;;9.33;9.33;;;;;22.00;60.62;101183.22;5079906;27;48249;-56
2021/06/26 08:54:02;;;;;;;;;6.67;6.67;;;;;22.00;60.65;101193.16;5080125;27;45923;-54
2021/06/26 08:56:28;;;;;;;;;6.33;6.33;;;;;21.94;60.19;101204.31;5064720;27;45428;-56
2021/06/26 08:58:53;;;;;;;;;8.67;6.67;;;;;21.90;60.75;101200.06;5080294;27;45286;-56
2021/06/26 09:01:19;;;;;;;;;9.67;8.00;;;;;21.87;61.02;101198.44;5077581;27;47249;-57
2021/06/26 09:03:44;;;;;;;;;7.00;7.00;;;;;21.89;60.42;101190.25;5072045;27;45404;-54
2021/06/26 09:06:10;;;;;;;;;11.33;7.67;;;;;21.93;60.44;101180.97;5067382;28;45341;-55
2021/06/26 09:08:36;;;;;;;;;9.33;9.33;;;;;22.00;60.69;101177.81;5081957;27;45409;-55
2021/06/26 09:11:01;;;;;;;;;7.67;7.67;;;;;22.13;60.47;101179.78;5079316;27;46325;-55
2021/06/26 09:13:32;;;;;;;;;9.67;9.67;;;;;22.26;60.06;101183.44;5092188;27;45940;-58
2021/06/26 09:16:08;;;;;;;;;8.00;7.00;;;;;22.36;59.89;101184.63;5078977;27;45461;-57
2021/06/26 09:18:47;;;;;;;;;6.67;6.67;;;;;22.47;59.32;101176.66;5067107;27;45425;-58
2021/06/26 09:21:25;;;;;;;;;6.00;6.00;;;;;22.61;59.83;101181.19;5062341;28;47421;-57
2021/06/26 09:24:00;;;;;;;;;9.33;7.67;;;;;22.72;59.17;101175.06;5063943;28;45648;-56
2021/06/26 09:26:26;;;;;;;;;7.00;7.00;;;;;22.80;59.58;101173.63;5071133;28;45364;-57
2021/06/26 09:28:52;;;;;;;;;8.67;8.67;;;;;22.89;58.98;101170.34;5071924;28;45342;-55
2021/06/26 09:31:21;;;;;;;;;8.33;8.00;;;;;22.99;58.91;101169.72;5086096;27;45397;-56
2021/06/26 09:33:57;;;;;;;;;9.33;9.00;;;;;23.06;57.98;101173.75;5062210;28;45648;-56
2021/06/26 09:36:30;;;;;;;;;8.00;7.00;;;;;23.11;57.63;101171.59;5073215;28;45409;-58
2021/06/26 09:39:06;;;;;;;;;9.00;8.00;;;;;23.18;58.05;101168.41;5059028;28;45478;-55
2021/06/26 09:41:33;;;;;;;;;9.00;8.50;;;;;23.25;57.79;101165.25;5059914;28;46298;-55
2021/06/26 09:44:13;;;;;;;;;10.00;10.00;;;;;23.31;57.18;101173.00;5071136;27;45408;-57
2021/06/26 09:46:46;;;;;;;;;13.00;11.50;;;;;23.35;57.40;101164.53;5064032;27;45868;-54
2021/06/26 09:49:11;;;;;;;;;11.25;9.25;;;;;23.38;57.33;101158.94;5069553;28;45451;-56
2021/06/26 09:51:37;;;;;;;;;9.75;9.00;;;;;23.44;56.92;101163.06;5065507;27;48264;-55
2021/06/26 09:54:07;;;;;;;;;10.00;9.00;;;;;23.50;56.24;101165.34;5078847;27;45427;-55
2021/06/26 09:56:43;;;;;;;;;10.00;10.00;;;;;23.57;56.11;101173.91;5061809;27;45652;-54
2021/06/26 09:59:10;;;;;;;;;7.75;7.75;;;;;23.63;56.17;101178.94;5059261;28;45470;-54
2021/06/26 10:01:41;;;;;;;;;11.33;9.67;;;;;23.69;56.05;101178.53;5062823;28;48176;-56
2021/06/26 10:04:07;;;;;;;;;7.25;7.00;;;;;23.73;55.74;101177.34;5061029;28;45957;-53
2021/06/26 10:06:34;;;;;;;;;7.33;7.33;;;;;23.81;55.58;101190.38;5087276;27;45445;-54
2021/06/26 10:09:01;;;;;;;;;9.75;9.75;;;;;23.84;55.67;101195.56;5059243;28;45361;-55
2021/06/26 10:11:30;;;;;;;;;19.50;17.75;;;;;23.84;55.49;101191.00;5075702;27;45547;-55
2021/06/26 10:13:56;;;;;;;;;12.75;12.75;;;;;23.84;55.04;101190.13;5070512;28;45395;-55
2021/06/26 10:16:23;;;;;;;;;11.50;11.25;;;;;23.81;54.95;101184.94;5067053;28;45488;-54
2021/06/26 10:18:49;;;;;;;;;13.00;12.00;;;;;23.80;55.06;101191.34;5071336;27;45353;-53
2021/06/26 10:21:15;;;;;;;;;12.25;11.50;;;;;23.75;54.85;101189.78;5069740;28;46750;-55
2021/06/26 10:23:41;;;;;;;;;9.00;9.00;;;;;23.70;54.83;101194.69;5068054;27;46267;-54
2021/06/26 10:26:07;;;;;;;;;12.50;12.50;;;;;23.71;54.96;101188.28;5077457;28;45306;-54
2021/06/26 10:28:32;;;;;;;;;10.00;9.00;;;;;23.75;55.00;101184.38;5076827;28;45496;-57
2021/06/26 10:31:06;;;;;;;;;13.25;12.25;;;;;23.83;54.89;101181.16;5071631;27;47034;-49
2021/06/26 10:33:32;;;;;;;;;9.75;9.75;;;;;23.90;54.91;101179.75;5058636;28;45753;-55
2021/06/26 10:36:00;;;;;;;;;10.00;9.50;;;;;24.01;54.90;101178.97;5074659;27;45472;-54
2021/06/26 10:38:27;;;;;;;;;11.00;11.00;;;;;24.11;54.68;101177.34;5059251;28;45523;-57
2021/06/26 10:40:56;;;;;;;;;12.00;11.25;;;;;24.17;54.61;101178.78;5062495;28;47498;-56
2021/06/26 10:43:30;;;;;;;;;11.50;11.00;;;;;24.26;54.48;101178.09;5068034;27;45317;-55
2021/06/26 10:46:05;;;;;;;;;11.25;11.25;;;;;24.31;54.24;101173.25;5067733;27;45336;-56
2021/06/26 10:48:32;;;;;;;;;17.00;15.25;;;;;24.37;54.65;101180.94;5066909;27;45616;-55
2021/06/26 10:50:57;;;;;;;;;13.00;13.00;;;;;24.43;54.20;101179.66;5078573;27;45921;-56
2021/06/26 10:53:31;;;;;;;;;12.25;11.75;;;;;24.49;54.31;101173.75;5064415;27;45523;-54
2021/06/26 10:56:00;;;;;;;;;12.00;11.25;;;;;24.55;54.34;101167.91;5072344;28;45789;-56
2021/06/26 10:58:28;;;;;;;;;12.50;12.50;;;;;24.59;53.68;101169.41;5075355;28;45514;-54
2021/06/26 11:00:54;;;;;;;;;13.00;12.50;;;;;24.64;53.90;101178.06;5065248;27;48058;-57
2021/06/26 11:03:26;;;;;;;;;13.75;13.00;;;;;24.69;53.84;101170.47;5061129;28;45666;-55
2021/06/26 11:05:52;;;;;;;;;13.75;11.25;;;;;24.75;53.71;101164.56;5066466;27;45746;-55
2021/06/26 11:08:22;;;;;;;;;10.50;10.50;;;;;24.78;53.31;101164.38;5091253;27;45446;-55
2021/06/26 11:10:56;;;;;;;;;11.25;10.50;;;;;24.76;53.31;101160.88;5066036;27;47352;-54
2021/06/26 11:13:28;;;;;;;;;9.33;9.33;;;;;24.73;53.07;101169.25;5068220;27;45301;-56
2021/06/26 11:16:04;;;;;;;;;13.50;12.00;;;;;24.73;52.87;101163.84;5076688;28;45506;-56
2021/06/26 11:18:30;;;;;;;;;10.75;10.75;;;;;24.76;52.30;101158.16;5087035;27;45559;-57